sensor_id;sensor_type;location;lat;lon;timestamp;pressure;altitude;pressure_sealevel;temperature;humidity
13767;BME280;47980;48.794;9.176;2023-05-16T00:00:10;97914.31;;;13.38;98.27
13767;BME280;47980;48.794;9.176;2023-05-16T00:02:42;97917.50;;;13.44;97.94
13767;BME280;47980;48.794;9.176;2023-05-16T00:05:13;97927.31;;;13.40;97.22
13767;BME280;47980;48.794;9.176;2023-05-16T00:07:46;97916.38;;;13.45;98.07
13767;BME280;47980;48.794;9.176;2023-05-16T00:10:18;97912.16;;;13.44;98.61
13767;BME280;47980;48.794;9.176;2023-05-16T00:12:49;97912.16;;;13.44;99.31
13767;BME280;47980;48.794;9.176;2023-05-16T00:15:22;97913.72;;;13.45;99.18
13767;BME280;47980;48.794;9.176;2023-05-16T00:17:54;97922.22;;;13.35;99.89
13767;BME280;47980;48.794;9.176;2023-05-16T00:20:27;97909.44;;;13.40;99.59
13767;BME280;47980;48.794;9.176;2023-05-16T00:23:00;97915.78;;;13.36;99.63
13767;BME280;47980;48.794;9.176;2023-05-16T00:25:32;97916.00;;;13.46;100.00
13767;BME280;47980;48.794;9.176;2023-05-16T00:28:03;97912.09;;;13.40;100.00
13767;BME280;47980;48.794;9.176;2023-05-16T00:30:35;97911.72;;;13.42;100.00
13767;BME280;47980;48.794;9.176;2023-05-16T00:33:06;97911.25;;;13.36;100.00
13767;BME280;47980;48.794;9.176;2023-05-16T00:35:38;97911.56;;;13.35;100.00
13767;BME280;47980;48.794;9.176;2023-05-16T00:38:11;97909.84;;;13.42;100.00
13767;BME280;47980;48.794;9.176;2023-05-16T00:40:42;97907.31;;;13.49;99.32
13767;BME280;47980;48.794;9.176;2023-05-16T00:43:14;97902.19;;;13.41;100.00
13767;BME280;47980;48.794;9.176;2023-05-16T00:45:45;97914.00;;;13.40;99.69
13767;BME280;47980;48.794;9.176;2023-05-16T00:48:17;97906.59;;;13.33;100.00
13767;BME280;47980;48.794;9.176;2023-05-16T00:50:49;97908.66;;;13.40;100.00
13767;BME280;47980;48.794;9.176;2023-05-16T00:53:24;97902.81;;;13.34;100.00
13767;BME280;47980;48.794;9.176;2023-05-16T00:55:56;97914.94;;;13.32;100.00
13767;BME280;47980;48.794;9.176;2023-05-16T00:58:29;97897.63;;;13.41;99.68
13767;BME280;47980;48.794;9.176;2023-05-16T01:01:01;97911.41;;;13.28;99.70
13767;BME280;47980;48.794;9.176;2023-05-16T01:03:34;97908.16;;;13.18;100.00
13767;BME280;47980;48.794;9.176;2023-05-16T01:06:06;97917.25;;;13.17;100.00
13767;BME280;47980;48.794;9.176;2023-05-16T01:08:39;97911.41;;;13.12;100.00
13767;BME280;47980;48.794;9.176;2023-05-16T01:11:17;97917.34;;;13.05;100.00
13767;BME280;47980;48.794;9.176;2023-05-16T01:13:59;97913.56;;;13.06;100.00
13767;BME280;47980;48.794;9.176;2023-05-16T01:16:38;97907.81;;;13.04;99.99
13767;BME280;47980;48.794;9.176;2023-05-16T01:19:28;97914.59;;;13.01;100.00
13767;BME280;47980;48.794;9.176;2023-05-16T01:22:10;97908.41;;;12.97;100.00
13767;BME280;47980;48.794;9.176;2023-05-16T01:24:55;97910.16;;;12.90;100.00
13767;BME280;47980;48.794;9.176;2023-05-16T01:27:32;97915.88;;;12.76;100.00
13767;BME280;47980;48.794;9.176;2023-05-16T01:30:15;97915.03;;;12.72;100.00
13767;BME280;47980;48.794;9.176;2023-05-16T01:32:47;97917.78;;;12.75;100.00
13767;BME280;47980;48.794;9.176;2023-05-16T01:35:19;97909.53;;;12.65;100.00
13767;BME280;47980;48.794;9.176;2023-05-16T01:37:57;97908.50;;;12.69;100.00
13767;BME280;47980;48.794;9.176;2023-05-16T01:40:35;97917.69;;;12.72;100.00
13767;BME280;47980;48.794;9.176;2023-05-16T01:43:13;97912.09;;;12.77;100.00
13767;BME280;47980;48.794;9.176;2023-05-16T01:45:52;97917.19;;;12.82;100.00
13767;BME280;47980;48.794;9.176;2023-05-16T01:48:31;97913.03;;;12.85;100.00
13767;BME280;47980;48.794;9.176;2023-05-16T01:51:06;97908.06;;;12.83;100.00
13767;BME280;47980;48.794;9.176;2023-05-16T01:53:38;97913.72;;;12.82;100.00
13767;BME280;47980;48.794;9.176;2023-05-16T01:56:14;97910.81;;;12.87;99.72
13767;BME280;47980;48.794;9.176;2023-05-16T01:58:48;97910.16;;;12.90;100.00
13767;BME280;47980;48.794;9.176;2023-05-16T02:01:21;97917.00;;;12.91;98.96
13767;BME280;47980;48.794;9.176;2023-05-16T02:03:53;97918.91;;;12.90;100.00
13767;BME280;47980;48.794;9.176;2023-05-16T02:06:24;97913.38;;;12.99;99.93
13767;BME280;47980;48.794;9.176;2023-05-16T02:08:56;97915.63;;;12.97;99.99
13767;BME280;47980;48.794;9.176;2023-05-16T02:11:28;97912.88;;;12.93;99.10
13767;BME280;47980;48.794;9.176;2023-05-16T02:14:00;97914.00;;;12.92;100.00
13767;BME280;47980;48.794;9.176;2023-05-16T02:16:32;97919.16;;;13.01;99.29
13767;BME280;47980;48.794;9.176;2023-05-16T02:19:04;97917.72;;;13.04;98.35
13767;BME280;47980;48.794;9.176;2023-05-16T02:21:35;97919.94;;;13.01;98.32
13767;BME280;47980;48.794;9.176;2023-05-16T02:24:07;97918.81;;;13.02;98.79
13767;BME280;47980;48.794;9.176;2023-05-16T02:26:38;97925.44;;;12.93;99.20
13767;BME280;47980;48.794;9.176;2023-05-16T02:29:11;97919.94;;;12.86;99.21
13767;BME280;47980;48.794;9.176;2023-05-16T02:31:44;97922.59;;;12.86;99.71
13767;BME280;47980;48.794;9.176;2023-05-16T02:34:16;97925.50;;;12.81;99.95
13767;BME280;47980;48.794;9.176;2023-05-16T02:36:47;97922.16;;;12.84;99.41
13767;BME280;47980;48.794;9.176;2023-05-16T02:39:19;97919.84;;;12.82;100.00
13767;BME280;47980;48.794;9.176;2023-05-16T02:41:51;97915.97;;;12.80;100.00
13767;BME280;47980;48.794;9.176;2023-05-16T02:44:23;97917.88;;;12.79;99.23
13767;BME280;47980;48.794;9.176;2023-05-16T02:46:55;97915.13;;;12.75;99.85
13767;BME280;47980;48.794;9.176;2023-05-16T02:49:26;97924.91;;;12.71;100.00
13767;BME280;47980;48.794;9.176;2023-05-16T02:51:58;97922.84;;;12.65;100.00
13767;BME280;47980;48.794;9.176;2023-05-16T02:54:29;97923.09;;;12.75;99.21
13767;BME280;47980;48.794;9.176;2023-05-16T02:57:01;97919.06;;;12.66;99.86
13767;BME280;47980;48.794;9.176;2023-05-16T02:59:34;97932.19;;;12.59;100.00
13767;BME280;47980;48.794;9.176;2023-05-16T03:02:06;97927.44;;;12.52;100.00
13767;BME280;47980;48.794;9.176;2023-05-16T03:04:37;97925.66;;;12.56;100.00
13767;BME280;47980;48.794;9.176;2023-05-16T03:07:09;97927.72;;;12.63;100.00
13767;BME280;47980;48.794;9.176;2023-05-16T03:09:41;97931.00;;;12.72;99.80
13767;BME280;47980;48.794;9.176;2023-05-16T03:12:12;97927.41;;;12.64;99.79
13767;BME280;47980;48.794;9.176;2023-05-16T03:14:45;97932.34;;;12.66;99.64
13767;BME280;47980;48.794;9.176;2023-05-16T03:17:16;97936.25;;;12.68;99.59
13767;BME280;47980;48.794;9.176;2023-05-16T03:19:48;97933.47;;;12.65;99.73
13767;BME280;47980;48.794;9.176;2023-05-16T03:22:19;97931.16;;;12.63;99.94
13767;BME280;47980;48.794;9.176;2023-05-16T03:24:51;97936.19;;;12.52;100.00
13767;BME280;47980;48.794;9.176;2023-05-16T03:27:22;97931.59;;;12.49;100.00
13767;BME280;47980;48.794;9.176;2023-05-16T03:29:55;97928.47;;;12.47;100.00
13767;BME280;47980;48.794;9.176;2023-05-16T03:32:29;97929.00;;;12.53;100.00
13767;BME280;47980;48.794;9.176;2023-05-16T03:35:00;97927.44;;;12.52;100.00
13767;BME280;47980;48.794;9.176;2023-05-16T03:37:32;97927.53;;;12.56;100.00
13767;BME280;47980;48.794;9.176;2023-05-16T03:40:05;97931.41;;;12.58;100.00
13767;BME280;47980;48.794;9.176;2023-05-16T03:42:38;97922.03;;;12.48;100.00
13767;BME280;47980;48.794;9.176;2023-05-16T03:45:11;97933.03;;;12.63;100.00
13767;BME280;47980;48.794;9.176;2023-05-16T03:47:42;97929.19;;;12.60;100.00
13767;BME280;47980;48.794;9.176;2023-05-16T03:50:14;97930.06;;;12.64;100.00
13767;BME280;47980;48.794;9.176;2023-05-16T03:52:45;97930.28;;;12.59;100.00
13767;BME280;47980;48.794;9.176;2023-05-16T03:55:17;97926.84;;;12.59;100.00
13767;BME280;47980;48.794;9.176;2023-05-16T03:57:48;97926.34;;;12.69;100.00
13767;BME280;47980;48.794;9.176;2023-05-16T04:00:23;97933.50;;;12.81;100.00
13767;BME280;47980;48.794;9.176;2023-05-16T04:02:54;97942.06;;;12.74;100.00
13767;BME280;47980;48.794;9.176;2023-05-16T04:05:26;97938.22;;;12.71;100.00
13767;BME280;47980;48.794;9.176;2023-05-16T04:07:58;97938.81;;;12.81;100.00
13767;BME280;47980;48.794;9.176;2023-05-16T04:10:29;97949.03;;;12.94;100.00
13767;BME280;47980;48.794;9.176;2023-05-16T04:13:01;97950.16;;;12.93;100.00
13767;BME280;47980;48.794;9.176;2023-05-16T04:15:34;97946.75;;;12.93;100.00
13767;BME280;47980;48.794;9.176;2023-05-16T04:18:05;97954.91;;;13.00;100.00
13767;BME280;47980;48.794;9.176;2023-05-16T04:20:37;97951.19;;;13.05;99.97
13767;BME280;47980;48.794;9.176;2023-05-16T04:23:08;97948.94;;;13.07;99.33
13767;BME280;47980;48.794;9.176;2023-05-16T04:25:41;97955.75;;;13.20;99.73
13767;BME280;47980;48.794;9.176;2023-05-16T04:28:13;97957.09;;;13.14;98.66
13767;BME280;47980;48.794;9.176;2023-05-16T04:30:46;97963.47;;;13.09;100.00
13767;BME280;47980;48.794;9.176;2023-05-16T04:33:17;97962.59;;;13.21;99.18
13767;BME280;47980;48.794;9.176;2023-05-16T04:35:49;97966.38;;;13.20;99.83
13767;BME280;47980;48.794;9.176;2023-05-16T04:38:22;97964.69;;;13.28;99.98
13767;BME280;47980;48.794;9.176;2023-05-16T04:40:53;97962.81;;;13.28;99.89
13767;BME280;47980;48.794;9.176;2023-05-16T04:43:25;97967.44;;;13.31;100.00
13767;BME280;47980;48.794;9.176;2023-05-16T04:45:58;97964.63;;;13.24;99.69
13767;BME280;47980;48.794;9.176;2023-05-16T04:48:30;97973.22;;;13.33;98.98
13767;BME280;47980;48.794;9.176;2023-05-16T04:51:02;97973.69;;;13.39;97.43
13767;BME280;47980;48.794;9.176;2023-05-16T04:53:33;97975.56;;;13.54;97.06
13767;BME280;47980;48.794;9.176;2023-05-16T04:56:05;97984.53;;;13.62;97.93
13767;BME280;47980;48.794;9.176;2023-05-16T04:58:37;97972.91;;;13.54;97.88
13767;BME280;47980;48.794;9.176;2023-05-16T05:01:10;97982.53;;;13.59;96.72
13767;BME280;47980;48.794;9.176;2023-05-16T05:03:41;97983.34;;;13.79;96.26
13767;BME280;47980;48.794;9.176;2023-05-16T05:06:13;97979.00;;;13.70;95.65
13767;BME280;47980;48.794;9.176;2023-05-16T05:08:44;97983.28;;;13.75;95.59
13767;BME280;47980;48.794;9.176;2023-05-16T05:11:15;97987.84;;;13.75;96.18
13767;BME280;47980;48.794;9.176;2023-05-16T05:13:47;97992.53;;;13.62;97.54
13767;BME280;47980;48.794;9.176;2023-05-16T05:16:20;97994.47;;;13.65;96.33
13767;BME280;47980;48.794;9.176;2023-05-16T05:18:52;97990.81;;;13.38;97.47
13767;BME280;47980;48.794;9.176;2023-05-16T05:21:23;97995.50;;;13.60;97.98
13767;BME280;47980;48.794;9.176;2023-05-16T05:23:55;97993.38;;;13.66;97.25
13767;BME280;47980;48.794;9.176;2023-05-16T05:26:27;97984.38;;;13.55;97.77
13767;BME280;47980;48.794;9.176;2023-05-16T05:28:59;97988.03;;;13.66;96.86
13767;BME280;47980;48.794;9.176;2023-05-16T05:31:31;97990.41;;;13.71;96.62
13767;BME280;47980;48.794;9.176;2023-05-16T05:34:03;97984.25;;;14.02;94.98
13767;BME280;47980;48.794;9.176;2023-05-16T05:36:35;97980.22;;;14.12;92.94
13767;BME280;47980;48.794;9.176;2023-05-16T05:39:06;97978.06;;;13.98;94.22
13767;BME280;47980;48.794;9.176;2023-05-16T05:41:38;97982.88;;;13.92;94.70
13767;BME280;47980;48.794;9.176;2023-05-16T05:44:10;97997.66;;;13.70;95.79
13767;BME280;47980;48.794;9.176;2023-05-16T05:46:43;97987.00;;;13.90;93.62
13767;BME280;47980;48.794;9.176;2023-05-16T05:49:14;97993.91;;;13.91;94.88
13767;BME280;47980;48.794;9.176;2023-05-16T05:51:46;97997.44;;;13.95;94.26
13767;BME280;47980;48.794;9.176;2023-05-16T05:54:21;97998.88;;;13.92;95.62
13767;BME280;47980;48.794;9.176;2023-05-16T05:56:52;98002.59;;;13.88;93.65
13767;BME280;47980;48.794;9.176;2023-05-16T05:59:24;98012.44;;;13.84;94.30
13767;BME280;47980;48.794;9.176;2023-05-16T06:01:57;98013.69;;;13.90;93.68
13767;BME280;47980;48.794;9.176;2023-05-16T06:04:28;98019.38;;;13.88;94.90
13767;BME280;47980;48.794;9.176;2023-05-16T06:07:00;98018.41;;;13.96;93.10
13767;BME280;47980;48.794;9.176;2023-05-16T06:09:32;98022.97;;;13.96;92.63
13767;BME280;47980;48.794;9.176;2023-05-16T06:12:04;98028.75;;;13.82;94.15
13767;BME280;47980;48.794;9.176;2023-05-16T06:14:35;98029.75;;;13.93;94.46
13767;BME280;47980;48.794;9.176;2023-05-16T06:17:08;98025.44;;;14.05;93.47
13767;BME280;47980;48.794;9.176;2023-05-16T06:19:40;98013.44;;;13.95;92.57
13767;BME280;47980;48.794;9.176;2023-05-16T06:22:11;98017.00;;;14.03;93.10
13767;BME280;47980;48.794;9.176;2023-05-16T06:24:43;98009.03;;;14.22;92.77
13767;BME280;47980;48.794;9.176;2023-05-16T06:27:15;98015.06;;;14.19;92.13
13767;BME280;47980;48.794;9.176;2023-05-16T06:29:46;98020.06;;;14.40;90.25
13767;BME280;47980;48.794;9.176;2023-05-16T06:32:19;98028.09;;;14.05;90.59
13767;BME280;47980;48.794;9.176;2023-05-16T06:34:50;98022.78;;;14.24;90.28
13767;BME280;47980;48.794;9.176;2023-05-16T06:37:22;98035.66;;;14.38;88.82
13767;BME280;47980;48.794;9.176;2023-05-16T06:39:55;98034.31;;;14.28;88.92
13767;BME280;47980;48.794;9.176;2023-05-16T06:42:26;98040.34;;;14.06;92.22
13767;BME280;47980;48.794;9.176;2023-05-16T06:44:58;98034.47;;;14.00;91.05
13767;BME280;47980;48.794;9.176;2023-05-16T06:47:31;98044.84;;;13.86;93.00
13767;BME280;47980;48.794;9.176;2023-05-16T06:50:02;98041.09;;;14.06;93.06
13767;BME280;47980;48.794;9.176;2023-05-16T06:52:34;98045.03;;;13.77;94.50
13767;BME280;47980;48.794;9.176;2023-05-16T06:55:06;98041.16;;;13.75;92.89
13767;BME280;47980;48.794;9.176;2023-05-16T06:57:38;98040.78;;;13.76;94.34
13767;BME280;47980;48.794;9.176;2023-05-16T07:00:10;98042.84;;;13.83;93.32
13767;BME280;47980;48.794;9.176;2023-05-16T07:02:43;98044.38;;;14.00;92.55
13767;BME280;47980;48.794;9.176;2023-05-16T07:05:15;98042.00;;;13.79;91.18
13767;BME280;47980;48.794;9.176;2023-05-16T07:07:46;98045.00;;;13.93;91.83
13767;BME280;47980;48.794;9.176;2023-05-16T07:10:19;98049.69;;;13.80;90.75
13767;BME280;47980;48.794;9.176;2023-05-16T07:12:51;98049.56;;;13.92;92.02
13767;BME280;47980;48.794;9.176;2023-05-16T07:15:22;98047.50;;;14.02;90.16
13767;BME280;47980;48.794;9.176;2023-05-16T07:17:55;98046.25;;;13.64;92.53
13767;BME280;47980;48.794;9.176;2023-05-16T07:20:27;98052.34;;;13.80;92.21
13767;BME280;47980;48.794;9.176;2023-05-16T07:22:58;98058.38;;;13.77;92.57
13767;BME280;47980;48.794;9.176;2023-05-16T07:25:30;98054.66;;;13.82;91.47
13767;BME280;47980;48.794;9.176;2023-05-16T07:28:02;98050.00;;;13.79;92.34
13767;BME280;47980;48.794;9.176;2023-05-16T07:30:34;98053.34;;;13.76;89.14
13767;BME280;47980;48.794;9.176;2023-05-16T07:33:06;98058.94;;;13.86;88.40
13767;BME280;47980;48.794;9.176;2023-05-16T07:35:38;98057.03;;;14.03;86.60
13767;BME280;47980;48.794;9.176;2023-05-16T07:38:10;98066.44;;;14.16;85.02
13767;BME280;47980;48.794;9.176;2023-05-16T07:40:42;98060.03;;;14.56;82.34
13767;BME280;47980;48.794;9.176;2023-05-16T07:43:13;98074.72;;;14.11;82.11
13767;BME280;47980;48.794;9.176;2023-05-16T07:45:45;98059.59;;;14.34;81.98
13767;BME280;47980;48.794;9.176;2023-05-16T07:48:18;98070.34;;;14.38;79.85
13767;BME280;47980;48.794;9.176;2023-05-16T07:50:49;98070.69;;;14.36;79.64
13767;BME280;47980;48.794;9.176;2023-05-16T07:53:21;98066.88;;;14.73;77.78
13767;BME280;47980;48.794;9.176;2023-05-16T07:55:52;98081.06;;;14.77;78.43
13767;BME280;47980;48.794;9.176;2023-05-16T07:58:24;98075.13;;;14.48;79.80
13767;BME280;47980;48.794;9.176;2023-05-16T08:00:56;98076.50;;;14.23;79.76
13767;BME280;47980;48.794;9.176;2023-05-16T08:03:29;98084.09;;;14.40;80.46
13767;BME280;47980;48.794;9.176;2023-05-16T08:06:00;98073.47;;;14.79;79.33
13767;BME280;47980;48.794;9.176;2023-05-16T08:08:32;98072.41;;;14.83;78.08
13767;BME280;47980;48.794;9.176;2023-05-16T08:11:03;98074.16;;;14.95;78.38
13767;BME280;47980;48.794;9.176;2023-05-16T08:13:36;98066.94;;;14.76;79.16
13767;BME280;47980;48.794;9.176;2023-05-16T08:16:07;98079.53;;;14.56;80.09
13767;BME280;47980;48.794;9.176;2023-05-16T08:18:40;98076.84;;;14.76;78.60
13767;BME280;47980;48.794;9.176;2023-05-16T08:21:12;98087.97;;;14.07;81.83
13767;BME280;47980;48.794;9.176;2023-05-16T08:23:45;98093.78;;;14.29;82.31
13767;BME280;47980;48.794;9.176;2023-05-16T08:26:17;98097.38;;;14.36;83.13
13767;BME280;47980;48.794;9.176;2023-05-16T08:28:48;98097.59;;;14.12;83.40
13767;BME280;47980;48.794;9.176;2023-05-16T08:31:20;98103.09;;;14.19;83.67
13767;BME280;47980;48.794;9.176;2023-05-16T08:33:53;98096.97;;;13.67;85.71
13767;BME280;47980;48.794;9.176;2023-05-16T08:36:24;98104.00;;;13.76;86.20
13767;BME280;47980;48.794;9.176;2023-05-16T08:38:56;98101.09;;;13.81;84.97
13767;BME280;47980;48.794;9.176;2023-05-16T08:41:28;98099.41;;;13.72;84.63
13767;BME280;47980;48.794;9.176;2023-05-16T08:44:00;98108.16;;;13.57;85.91
13767;BME280;47980;48.794;9.176;2023-05-16T08:46:32;98115.72;;;13.71;85.25
13767;BME280;47980;48.794;9.176;2023-05-16T08:49:07;98104.66;;;13.69;85.27
13767;BME280;47980;48.794;9.176;2023-05-16T08:51:40;98108.31;;;13.64;85.31
13767;BME280;47980;48.794;9.176;2023-05-16T08:54:13;98112.19;;;13.67;85.52
13767;BME280;47980;48.794;9.176;2023-05-16T08:56:46;98115.41;;;13.72;85.55
13767;BME280;47980;48.794;9.176;2023-05-16T08:59:19;98120.94;;;13.83;86.13
13767;BME280;47980;48.794;9.176;2023-05-16T09:01:51;98123.44;;;13.76;88.06
13767;BME280;47980;48.794;9.176;2023-05-16T09:04:24;98120.19;;;13.83;86.83
13767;BME280;47980;48.794;9.176;2023-05-16T09:06:56;98128.00;;;13.76;86.89
13767;BME280;47980;48.794;9.176;2023-05-16T09:09:28;98124.75;;;13.98;85.71
13767;BME280;47980;48.794;9.176;2023-05-16T09:11:59;98133.09;;;13.96;85.66
13767;BME280;47980;48.794;9.176;2023-05-16T09:14:31;98120.75;;;14.08;85.01
13767;BME280;47980;48.794;9.176;2023-05-16T09:17:04;98120.88;;;13.64;88.60
13767;BME280;47980;48.794;9.176;2023-05-16T09:19:42;98127.94;;;13.88;85.38
13767;BME280;47980;48.794;9.176;2023-05-16T09:22:14;98113.41;;;13.69;87.58
13767;BME280;47980;48.794;9.176;2023-05-16T09:24:45;98118.03;;;13.88;87.50
13767;BME280;47980;48.794;9.176;2023-05-16T09:27:17;98117.00;;;13.93;87.73
13767;BME280;47980;48.794;9.176;2023-05-16T09:29:50;98113.91;;;13.91;87.87
13767;BME280;47980;48.794;9.176;2023-05-16T09:32:23;98118.09;;;14.08;87.06
13767;BME280;47980;48.794;9.176;2023-05-16T09:34:56;98114.06;;;14.14;86.32
13767;BME280;47980;48.794;9.176;2023-05-16T09:37:29;98111.69;;;14.28;86.50
13767;BME280;47980;48.794;9.176;2023-05-16T09:40:02;98121.91;;;14.07;87.48
13767;BME280;47980;48.794;9.176;2023-05-16T09:42:34;98114.53;;;14.19;86.22
13767;BME280;47980;48.794;9.176;2023-05-16T09:45:06;98117.69;;;14.41;86.28
13767;BME280;47980;48.794;9.176;2023-05-16T09:47:43;98107.47;;;15.01;82.35
13767;BME280;47980;48.794;9.176;2023-05-16T09:50:17;98101.28;;;15.39;79.78
13767;BME280;47980;48.794;9.176;2023-05-16T09:52:49;98101.28;;;15.39;79.32
13767;BME280;47980;48.794;9.176;2023-05-16T09:55:21;98101.28;;;15.62;77.55
13767;BME280;47980;48.794;9.176;2023-05-16T09:57:53;98097.13;;;15.42;77.60
13767;BME280;47980;48.794;9.176;2023-05-16T10:00:28;98099.16;;;15.06;79.25
13767;BME280;47980;48.794;9.176;2023-05-16T10:03:02;98101.03;;;14.83;80.28
13767;BME280;47980;48.794;9.176;2023-05-16T10:05:35;98109.31;;;14.58;82.44
13767;BME280;47980;48.794;9.176;2023-05-16T10:08:07;98106.75;;;14.46;83.37
13767;BME280;47980;48.794;9.176;2023-05-16T10:10:40;98104.97;;;14.89;82.92
13767;BME280;47980;48.794;9.176;2023-05-16T10:13:12;98112.13;;;15.04;81.09
13767;BME280;47980;48.794;9.176;2023-05-16T10:15:45;98107.78;;;14.96;80.58
13767;BME280;47980;48.794;9.176;2023-05-16T10:18:17;98099.91;;;15.26;80.56
13767;BME280;47980;48.794;9.176;2023-05-16T10:20:54;98093.69;;;15.41;79.00
13767;BME280;47980;48.794;9.176;2023-05-16T10:23:27;98101.31;;;15.20;79.73
13767;BME280;47980;48.794;9.176;2023-05-16T10:25:59;98092.44;;;15.58;77.73
13767;BME280;47980;48.794;9.176;2023-05-16T10:28:33;98094.69;;;15.33;76.92
13767;BME280;47980;48.794;9.176;2023-05-16T10:31:06;98095.38;;;15.07;76.71
13767;BME280;47980;48.794;9.176;2023-05-16T10:33:39;98101.00;;;15.02;77.98
13767;BME280;47980;48.794;9.176;2023-05-16T10:36:13;98108.25;;;15.02;79.45
13767;BME280;47980;48.794;9.176;2023-05-16T10:38:45;98100.28;;;15.05;78.20
13767;BME280;47980;48.794;9.176;2023-05-16T10:41:18;98103.41;;;15.07;78.54
13767;BME280;47980;48.794;9.176;2023-05-16T10:43:58;98101.13;;;15.09;78.29
13767;BME280;47980;48.794;9.176;2023-05-16T10:46:31;98102.91;;;14.63;81.88
13767;BME280;47980;48.794;9.176;2023-05-16T10:49:18;98102.97;;;14.66;80.97
13767;BME280;47980;48.794;9.176;2023-05-16T10:52:07;98108.91;;;14.40;82.12
13767;BME280;47980;48.794;9.176;2023-05-16T10:54:40;98117.25;;;14.39;82.61
13767;BME280;47980;48.794;9.176;2023-05-16T10:57:16;98106.91;;;14.18;82.59
13767;BME280;47980;48.794;9.176;2023-05-16T10:59:50;98104.06;;;14.11;83.61
13767;BME280;47980;48.794;9.176;2023-05-16T11:02:24;98116.97;;;14.25;82.87
13767;BME280;47980;48.794;9.176;2023-05-16T11:04:57;98113.91;;;13.91;84.90
13767;BME280;47980;48.794;9.176;2023-05-16T11:07:32;98120.09;;;13.95;86.14
13767;BME280;47980;48.794;9.176;2023-05-16T11:10:06;98120.28;;;13.86;88.20
13767;BME280;47980;48.794;9.176;2023-05-16T11:12:42;98122.09;;;13.66;90.89
13767;BME280;47980;48.794;9.176;2023-05-16T11:15:20;98132.81;;;13.54;91.92
13767;BME280;47980;48.794;9.176;2023-05-16T11:18:03;98130.84;;;13.67;92.63
13767;BME280;47980;48.794;9.176;2023-05-16T11:20:36;98133.41;;;13.32;94.88
13767;BME280;47980;48.794;9.176;2023-05-16T11:23:20;98133.25;;;13.56;94.97
13767;BME280;47980;48.794;9.176;2023-05-16T11:25:54;98141.16;;;13.37;96.51
13767;BME280;47980;48.794;9.176;2023-05-16T11:28:26;98141.84;;;13.34;97.64
13767;BME280;47980;48.794;9.176;2023-05-16T11:30:59;98143.41;;;13.22;99.75
13767;BME280;47980;48.794;9.176;2023-05-16T11:33:32;98143.06;;;13.36;99.44
13767;BME280;47980;48.794;9.176;2023-05-16T11:36:06;98144.81;;;13.32;98.77
13767;BME280;47980;48.794;9.176;2023-05-16T11:38:40;98144.63;;;13.25;98.86
13767;BME280;47980;48.794;9.176;2023-05-16T11:41:12;98147.75;;;13.27;99.38
13767;BME280;47980;48.794;9.176;2023-05-16T11:43:46;98153.88;;;13.15;96.90
13767;BME280;47980;48.794;9.176;2023-05-16T11:46:18;98145.63;;;13.33;95.16
13767;BME280;47980;48.794;9.176;2023-05-16T11:48:50;98143.91;;;13.12;97.12
13767;BME280;47980;48.794;9.176;2023-05-16T11:51:22;98148.38;;;13.36;95.80
13767;BME280;47980;48.794;9.176;2023-05-16T11:53:55;98157.16;;;13.53;96.05
13767;BME280;47980;48.794;9.176;2023-05-16T11:56:27;98161.28;;;13.50;95.02
13767;BME280;47980;48.794;9.176;2023-05-16T11:58:59;98158.41;;;13.27;95.56
13767;BME280;47980;48.794;9.176;2023-05-16T12:01:31;98163.97;;;13.66;95.81
13767;BME280;47980;48.794;9.176;2023-05-16T12:04:07;98162.34;;;13.77;93.40
13767;BME280;47980;48.794;9.176;2023-05-16T12:06:39;98167.38;;;13.51;92.22
13767;BME280;47980;48.794;9.176;2023-05-16T12:09:14;98165.31;;;13.44;92.33
13767;BME280;47980;48.794;9.176;2023-05-16T12:11:46;98158.78;;;13.41;92.59
13767;BME280;47980;48.794;9.176;2023-05-16T12:14:18;98178.88;;;13.39;93.00
13767;BME280;47980;48.794;9.176;2023-05-16T12:16:51;98171.56;;;13.36;93.20
13767;BME280;47980;48.794;9.176;2023-05-16T12:19:23;98179.75;;;13.43;88.88
13767;BME280;47980;48.794;9.176;2023-05-16T12:21:55;98174.94;;;13.48;89.56
13767;BME280;47980;48.794;9.176;2023-05-16T12:24:30;98180.13;;;13.57;88.43
13767;BME280;47980;48.794;9.176;2023-05-16T12:27:01;98179.25;;;13.53;88.04
13767;BME280;47980;48.794;9.176;2023-05-16T12:29:33;98187.88;;;13.62;87.21
13767;BME280;47980;48.794;9.176;2023-05-16T12:32:06;98183.72;;;13.49;84.53
13767;BME280;47980;48.794;9.176;2023-05-16T12:34:38;98179.94;;;13.50;85.71
13767;BME280;47980;48.794;9.176;2023-05-16T12:37:09;98178.66;;;13.76;82.97
13767;BME280;47980;48.794;9.176;2023-05-16T12:39:42;98183.41;;;13.82;83.46
13767;BME280;47980;48.794;9.176;2023-05-16T12:42:16;98172.38;;;13.68;82.76
13767;BME280;47980;48.794;9.176;2023-05-16T12:44:47;98182.72;;;13.85;83.51
13767;BME280;47980;48.794;9.176;2023-05-16T12:47:19;98182.91;;;13.77;82.46
13767;BME280;47980;48.794;9.176;2023-05-16T12:49:50;98191.44;;;13.54;83.12
13767;BME280;47980;48.794;9.176;2023-05-16T12:52:23;98190.47;;;13.75;83.07
13767;BME280;47980;48.794;9.176;2023-05-16T12:54:56;98193.22;;;13.62;86.13
13767;BME280;47980;48.794;9.176;2023-05-16T12:57:27;98197.59;;;13.70;84.88
13767;BME280;47980;48.794;9.176;2023-05-16T13:00:00;98188.56;;;13.75;85.36
13767;BME280;47980;48.794;9.176;2023-05-16T13:02:32;98195.78;;;13.90;84.49
13767;BME280;47980;48.794;9.176;2023-05-16T13:05:04;98195.72;;;13.87;84.64
13767;BME280;47980;48.794;9.176;2023-05-16T13:07:36;98193.31;;;14.13;83.69
13767;BME280;47980;48.794;9.176;2023-05-16T13:10:11;98201.47;;;13.89;81.39
13767;BME280;47980;48.794;9.176;2023-05-16T13:12:43;98201.03;;;13.71;84.79
13767;BME280;47980;48.794;9.176;2023-05-16T13:15:15;98207.66;;;13.77;84.92
13767;BME280;47980;48.794;9.176;2023-05-16T13:17:47;98209.47;;;13.73;83.94
13767;BME280;47980;48.794;9.176;2023-05-16T13:20:18;98203.38;;;13.72;83.41
13767;BME280;47980;48.794;9.176;2023-05-16T13:22:50;98207.91;;;13.72;79.14
13767;BME280;47980;48.794;9.176;2023-05-16T13:25:23;98210.09;;;13.54;80.77